Time;durP1;ratioP1;P1;durP2;ratioP2;P2;SDS_P1;SDS_P2;PMS_P1;PMS_P2;Temp;Humidity;BMP_temperature;BMP_pressure;BME280_temperature;BME280_humidity;BME280_pressure;Samples;Min_cycle;Max_cycle;Signal;HPM_P1;HPM_P2
2022/03/14 00:00:07;;;;;;;341.00;86.47;;;;;;;3.55;49.78;101096.47;346465;28;1338;-69
2022/03/14 00:00:18;;;;;;;341.65;87.15;;;;;;;3.55;49.37;101104.22;346570;28;849;-69
2022/03/14 00:00:29;;;;;;;343.27;87.22;;;;;;;3.55;49.79;101104.22;343840;28;874;-69
2022/03/14 00:00:40;;;;;;;343.70;87.47;;;;;;;3.58;49.92;101105.97;342482;28;1568;-69
2022/03/14 00:00:50;;;;;;;343.47;87.60;;;;;;;3.57;49.72;101110.28;341052;28;1223;-69
2022/03/14 00:01:00;;;;;;;342.10;87.65;;;;;;;3.58;49.71;101100.78;341174;29;881;-69
2022/03/14 00:01:11;;;;;;;341.63;86.80;;;;;;;3.58;49.96;101106.84;345011;28;1391;-69
2022/03/14 00:01:22;;;;;;;343.15;87.43;;;;;;;3.59;50.12;101111.16;345158;28;1604;-69
2022/03/14 00:01:32;;;;;;;345.27;88.43;;;;;;;3.58;49.39;101101.66;345089;28;1400;-69
2022/03/14 00:01:43;;;;;;;344.63;87.80;;;;;;;3.62;49.74;101107.75;341055;29;899;-69
2022/03/14 00:01:53;;;;;;;342.92;87.78;;;;;;;3.60;49.56;101104.28;343809;28;1352;-69
2022/03/14 00:02:04;;;;;;;342.30;86.47;;;;;;;3.58;49.62;101104.25;343056;28;912;-69
2022/03/14 00:02:14;;;;;;;343.90;87.37;;;;;;;3.59;49.47;101103.41;343654;28;1323;-69
2022/03/14 00:02:25;;;;;;;342.90;85.57;;;;;;;3.58;49.65;101101.66;341088;28;1902;-69
2022/03/14 00:02:35;;;;;;;343.15;86.55;;;;;;;3.58;49.97;101104.25;343457;28;1217;-69
2022/03/14 00:02:46;;;;;;;343.83;86.67;;;;;;;3.61;49.47;101106.00;341127;29;1205;-69
2022/03/14 00:03:02;;;;;;;344.42;88.13;;;;;;;3.59;50.21;101100.81;343787;28;1244;-69
2022/03/14 00:03:13;;;;;;;341.90;87.07;;;;;;;3.59;49.72;101106.00;342519;28;897;-69
2022/03/14 00:03:25;;;;;;;340.65;86.07;;;;;;;3.57;49.70;101099.94;343797;28;869;-69
2022/03/14 00:03:41;;;;;;;339.25;87.43;;;;;;;3.58;49.98;101106.84;340972;28;1570;-69
2022/03/14 00:03:55;;;;;;;342.70;87.93;;;;;;;3.59;49.77;101102.53;342283;28;944;-69
2022/03/14 00:04:05;;;;;;;344.20;87.80;;;;;;;3.63;49.48;101100.00;342486;28;885;-69
2022/03/14 00:04:17;;;;;;;341.23;87.63;;;;;;;3.64;49.57;101106.03;342890;28;1985;-69
2022/03/14 00:04:29;;;;;;;340.92;87.88;;;;;;;3.64;49.83;101104.31;342546;28;917;-69
2022/03/14 00:04:40;;;;;;;341.52;87.88;;;;;;;3.64;50.15;101103.47;342455;28;1268;-69
2022/03/14 00:04:51;;;;;;;342.77;88.40;;;;;;;3.64;49.80;101106.03;339803;29;1737;-69
2022/03/14 00:05:05;;;;;;;340.98;88.15;;;;;;;3.63;49.81;101106.91;339343;29;953;-69
2022/03/14 00:05:16;;;;;;;339.67;86.85;;;;;;;3.61;49.79;101104.28;338608;29;933;-69
2022/03/14 00:05:31;;;;;;;339.60;86.40;;;;;;;3.63;49.37;101105.19;343108;28;893;-69
2022/03/14 00:05:41;;;;;;;340.98;87.32;;;;;;;3.63;49.61;101102.59;343693;28;1446;-69
2022/03/14 00:05:52;;;;;;;343.37;89.30;;;;;;;3.63;49.49;101100.00;343895;28;806;-69
2022/03/14 00:06:02;;;;;;;342.00;89.05;;;;;;;3.63;49.46;101105.19;343685;28;1279;-69
2022/03/14 00:06:13;;;;;;;341.20;88.10;;;;;;;3.63;50.24;101104.31;342526;28;913;-69
2022/03/14 00:06:23;;;;;;;339.98;85.88;;;;;;;3.62;50.30;101102.56;338578;29;1032;-69
2022/03/14 00:06:35;;;;;;;341.40;85.93;;;;;;;3.61;50.14;101104.28;342009;28;1565;-69
2022/03/14 00:06:48;;;;;;;344.58;90.22;;;;;;;3.61;49.91;101101.72;342538;28;949;-69
2022/03/14 00:06:59;;;;;;;342.92;89.68;;;;;;;3.60;49.58;101104.28;342631;28;940;-69
2022/03/14 00:07:11;;;;;;;342.17;88.00;;;;;;;3.62;49.44;101102.56;342527;28;865;-69
2022/03/14 00:07:22;;;;;;;343.65;87.28;;;;;;;3.61;50.11;101109.47;342353;28;1905;-69
2022/03/14 00:07:36;;;;;;;344.50;88.07;;;;;;;3.61;49.54;101104.28;341873;28;1464;-69
2022/03/14 00:07:47;;;;;;;343.98;86.57;;;;;;;3.62;50.11;101102.56;343497;28;2048;-69
2022/03/14 00:07:59;;;;;;;343.80;85.85;;;;;;;3.63;49.69;101106.91;341104;28;1413;-69
2022/03/14 00:08:09;;;;;;;339.65;84.00;;;;;;;3.63;49.59;101101.72;342473;28;1933;-69
2022/03/14 00:08:24;;;;;;;340.13;86.30;;;;;;;3.61;49.93;101106.88;341801;28;1205;-69
2022/03/14 00:08:34;;;;;;;340.45;87.15;;;;;;;3.62;49.95;101108.63;342416;28;952;-69
2022/03/14 00:08:45;;;;;;;342.83;88.60;;;;;;;3.63;49.81;101100.00;342505;28;1015;-69
2022/03/14 00:08:57;;;;;;;343.63;88.57;;;;;;;3.64;49.79;101103.47;341089;29;1328;-69
2022/03/14 00:09:08;;;;;;;344.26;88.40;;;;;;;3.64;49.73;101104.31;341265;29;1084;-69
2022/03/14 00:09:18;;;;;;;342.67;87.10;;;;;;;3.65;49.59;101100.88;341218;29;1072;-69
2022/03/14 00:09:29;;;;;;;341.40;87.35;;;;;;;3.66;49.73;101105.22;342511;28;1209;-69
2022/03/14 00:09:39;;;;;;;341.42;87.90;;;;;;;3.64;50.14;101100.88;341030;29;1299;-69
2022/03/14 00:09:50;;;;;;;341.53;88.83;;;;;;;3.63;49.83;101100.00;341903;28;1884;-69
2022/03/14 00:10:04;;;;;;;342.85;89.15;;;;;;;3.62;49.67;101103.44;344356;28;2223;-69
2022/03/14 00:10:16;;;;;;;344.13;88.63;;;;;;;3.61;49.75;101100.84;344986;28;1271;-69
2022/03/14 00:10:26;;;;;;;345.77;89.32;;;;;;;3.61;50.26;101108.59;343015;28;1303;-69
2022/03/14 00:10:37;;;;;;;341.90;86.60;;;;;;;3.61;50.12;101106.00;341238;29;1072;-69
2022/03/14 00:10:49;;;;;;;342.70;87.18;;;;;;;3.60;49.73;101104.28;339910;29;846;-69
2022/03/14 00:10:59;;;;;;;339.90;85.75;;;;;;;3.59;49.98;101103.41;342511;28;1397;-69
2022/03/14 00:11:10;;;;;;;342.35;87.07;;;;;;;3.60;50.20;101105.16;342383;28;1197;-69
2022/03/14 00:11:22;;;;;;;340.17;86.72;;;;;;;3.61;50.04;101111.19;343783;28;1435;-69
2022/03/14 00:11:35;;;;;;;341.58;89.07;;;;;;;3.62;50.48;101106.03;341093;29;1576;-69
2022/03/14 00:11:46;;;;;;;345.98;90.18;;;;;;;3.60;50.35;101105.16;342514;28;870;-69
2022/03/14 00:11:57;;;;;;;347.20;90.03;;;;;;;3.62;50.31;101105.16;345104;28;1376;-69
2022/03/14 00:12:08;;;;;;;345.52;89.22;;;;;;;3.61;50.73;101103.41;340416;29;1836;-69
2022/03/14 00:12:23;;;;;;;342.10;89.30;;;;;;;3.61;49.54;101101.72;339905;29;1032;-69
2022/03/14 00:12:34;;;;;;;340.63;88.78;;;;;;;3.61;50.21;101104.28;341159;29;1101;-69
2022/03/14 00:12:44;;;;;;;340.55;89.60;;;;;;;3.63;50.35;101110.34;342306;28;905;-69
2022/03/14 00:12:58;;;;;;;342.83;89.83;;;;;;;3.62;49.96;101097.41;342580;28;876;-69
2022/03/14 00:13:09;;;;;;;345.02;90.65;;;;;;;3.63;50.21;101105.19;339857;29;1498;-69
2022/03/14 00:13:19;;;;;;;342.67;89.63;;;;;;;3.64;49.78;101112.09;341215;29;869;-69
2022/03/14 00:13:29;;;;;;;341.97;88.67;;;;;;;3.63;49.85;101105.19;341179;29;936;-69
2022/03/14 00:13:43;;;;;;;340.35;86.13;;;;;;;3.64;50.28;101108.63;342463;28;977;-69
2022/03/14 00:13:57;;;;;;;339.08;85.32;;;;;;;3.65;50.10;101108.66;343760;28;869;-69
2022/03/14 00:14:09;;;;;;;339.77;85.75;;;;;;;3.65;50.59;101106.06;343811;28;1011;-69
2022/03/14 00:14:19;;;;;;;341.65;87.72;;;;;;;3.66;50.60;101112.13;343838;28;985;-69
2022/03/14 00:14:30;;;;;;;343.00;86.95;;;;;;;3.65;50.25;101108.66;341038;29;1973;-69
2022/03/14 00:14:40;;;;;;;342.07;86.43;;;;;;;3.66;50.40;101112.97;342259;28;2390;-69
2022/03/14 00:14:55;;;;;;;342.07;85.33;;;;;;;3.63;50.84;101105.19;342166;28;1840;-69
2022/03/14 00:15:11;;;;;;;341.55;85.28;;;;;;;3.63;50.26;101105.19;343051;28;1023;-69
2022/03/14 00:15:22;;;;;;;345.65;87.13;;;;;;;3.63;50.58;101100.00;343799;28;933;-69
2022/03/14 00:15:32;;;;;;;343.67;86.60;;;;;;;3.64;51.20;101109.50;345185;28;865;-69
2022/03/14 00:15:43;;;;;;;343.30;85.55;;;;;;;3.61;50.82;101114.66;344982;28;1393;-69
2022/03/14 00:15:53;;;;;;;340.97;85.73;;;;;;;3.61;50.81;101111.19;341180;29;947;-69
2022/03/14 00:16:04;;;;;;;341.98;86.50;;;;;;;3.60;51.23;101107.72;340927;29;1431;-69
2022/03/14 00:16:22;;;;;;;341.10;86.60;;;;;;;3.59;51.26;101108.59;341021;28;1900;-69
2022/03/14 00:16:36;;;;;;;342.27;88.43;;;;;;;3.54;51.20;101105.06;342492;28;1175;-69
2022/03/14 00:16:46;;;;;;;345.24;89.60;;;;;;;3.53;51.10;101108.50;345155;28;879;-69
2022/03/14 00:16:57;;;;;;;345.97;88.57;;;;;;;3.52;51.15;101111.94;342788;28;2303;-69
2022/03/14 00:17:09;;;;;;;345.40;87.72;;;;;;;3.50;51.67;101102.44;342381;28;1650;-69
2022/03/14 00:17:19;;;;;;;345.67;88.88;;;;;;;3.50;51.53;101102.44;339764;29;1051;-69
2022/03/14 00:17:30;;;;;;;344.17;88.63;;;;;;;3.49;51.58;101104.16;342525;28;1362;-69
2022/03/14 00:17:45;;;;;;;341.55;88.07;;;;;;;3.50;51.71;101110.19;342398;28;941;-69
2022/03/14 00:17:56;;;;;;;342.13;86.70;;;;;;;3.50;51.37;101107.59;341566;28;1764;-69
2022/03/14 00:18:10;;;;;;;346.38;89.07;;;;;;;3.48;51.49;101109.31;339963;29;1841;-69
2022/03/14 00:18:20;;;;;;;348.35;91.60;;;;;;;3.47;51.79;101107.56;341189;29;963;-69
2022/03/14 00:18:32;;;;;;;346.20;90.05;;;;;;;3.46;51.40;101104.13;343909;28;893;-69
2022/03/14 00:18:43;;;;;;;341.40;86.88;;;;;;;3.46;51.25;101105.84;343950;28;939;-69
2022/03/14 00:18:55;;;;;;;343.48;89.60;;;;;;;3.46;51.89;101106.72;343830;28;979;-69
2022/03/14 00:19:06;;;;;;;341.90;88.75;;;;;;;3.46;51.93;101109.31;339882;29;1373;-69
2022/03/14 00:19:18;;;;;;;340.55;88.07;;;;;;;3.48;51.77;101110.16;341237;29;869;-69
2022/03/14 00:19:31;;;;;;;339.73;86.47;;;;;;;3.45;51.84;101105.00;341079;28;1287;-69
2022/03/14 00:19:41;;;;;;;341.00;87.13;;;;;;;3.46;51.44;101109.31;341116;28;870;-69
2022/03/14 00:19:53;;;;;;;342.02;86.95;;;;;;;3.46;51.91;101111.91;342139;28;2173;-69
2022/03/14 00:20:04;;;;;;;343.60;87.60;;;;;;;3.45;51.46;101111.88;342928;28;896;-69
2022/03/14 00:20:15;;;;;;;343.58;89.18;;;;;;;3.45;52.08;101105.00;343802;28;992;-69
2022/03/14 00:20:25;;;;;;;342.88;88.22;;;;;;;3.47;51.39;101111.03;342542;28;938;-69
2022/03/14 00:20:36;;;;;;;341.73;86.78;;;;;;;3.48;51.47;101110.16;342453;28;1934;-69
2022/03/14 00:20:46;;;;;;;340.97;86.30;;;;;;;3.49;51.03;101114.50;341153;29;860;-69
2022/03/14 00:20:57;;;;;;;341.13;87.85;;;;;;;3.49;51.70;101111.91;340777;29;929;-69
2022/03/14 00:21:10;;;;;;;339.87;87.33;;;;;;;3.50;51.25;101113.66;339797;29;925;-69
2022/03/14 00:21:22;;;;;;;342.05;88.68;;;;;;;3.50;51.65;101111.06;339886;29;1309;-69
2022/03/14 00:21:38;;;;;;;342.77;90.60;;;;;;;3.50;51.20;101107.59;343527;28;1974;-69
2022/03/14 00:21:49;;;;;;;342.60;89.38;;;;;;;3.50;51.76;101110.19;341560;28;1315;-69
2022/03/14 00:22:00;;;;;;;343.70;90.13;;;;;;;3.48;51.28;101107.59;339428;29;1073;-69
2022/03/14 00:22:10;;;;;;;347.60;90.78;;;;;;;3.47;51.98;101108.44;342520;28;1202;-69
2022/03/14 00:22:22;;;;;;;346.98;91.82;;;;;;;3.46;51.51;101117.06;342321;28;1108;-69
2022/03/14 00:22:32;;;;;;;347.50;90.75;;;;;;;3.44;51.39;101113.59;342525;28;1407;-69
2022/03/14 00:22:45;;;;;;;346.17;90.10;;;;;;;3.43;51.92;101117.03;341170;29;1188;-69
2022/03/14 00:22:58;;;;;;;344.27;88.82;;;;;;;3.40;51.99;101114.41;341143;29;1421;-69
2022/03/14 00:23:08;;;;;;;342.60;88.30;;;;;;;3.40;51.87;101113.53;343681;28;1657;-69
2022/03/14 00:23:19;;;;;;;341.50;87.85;;;;;;;3.38;51.27;101113.53;345132;28;1243;-69
2022/03/14 00:23:30;;;;;;;341.30;87.82;;;;;;;3.40;52.16;101113.53;345235;28;967;-69
2022/03/14 00:23:40;;;;;;;343.60;90.37;;;;;;;3.39;51.72;101115.25;340884;29;1301;-69
2022/03/14 00:23:56;;;;;;;343.38;89.93;;;;;;;3.38;51.75;101115.25;342367;28;1239;-69
2022/03/14 00:24:08;;;;;;;340.58;86.88;;;;;;;3.39;51.84;101119.56;342552;28;1305;-69
2022/03/14 00:24:19;;;;;;;341.65;87.32;;;;;;;3.39;51.75;101115.25;341110;28;1414;-69
2022/03/14 00:24:29;;;;;;;343.13;87.82;;;;;;;3.39;52.01;101117.84;341215;29;874;-70
2022/03/14 00:24:40;;;;;;;343.30;88.57;;;;;;;3.39;52.45;101117.84;341048;28;1348;-70
2022/03/14 00:24:50;;;;;;;342.92;88.80;;;;;;;3.40;51.77;101118.72;341890;28;1917;-70
2022/03/14 00:25:00;;;;;;;342.70;90.20;;;;;;;3.39;52.04;101115.25;340523;29;2133;-70
2022/03/14 00:25:11;;;;;;;345.13;91.20;;;;;;;3.39;52.14;101112.69;341797;28;893;-70
2022/03/14 00:25:22;;;;;;;346.30;92.20;;;;;;;3.39;52.39;101111.81;342440;28;1356;-70
2022/03/14 00:25:33;;;;;;;347.25;92.13;;;;;;;3.40;52.07;101118.72;341137;28;1418;-69
2022/03/14 00:25:43;;;;;;;344.50;91.78;;;;;;;3.41;52.35;101121.31;342471;28;843;-69
2022/03/14 00:25:54;;;;;;;342.13;90.63;;;;;;;3.41;52.19;101112.69;342481;28;1326;-69
2022/03/14 00:26:06;;;;;;;342.38;87.60;;;;;;;3.41;52.12;101113.56;343877;28;957;-69
2022/03/14 00:26:16;;;;;;;343.17;87.57;;;;;;;3.41;51.88;101112.69;341070;29;1310;-69
2022/03/14 00:26:26;;;;;;;344.53;89.73;;;;;;;3.40;52.17;101111.81;340868;28;2345;-69
2022/03/14 00:26:37;;;;;;;342.30;89.33;;;;;;;3.41;52.00;101108.38;343711;28;1224;-69
2022/03/14 00:26:47;;;;;;;342.05;88.57;;;;;;;3.43;52.04;101116.16;341884;28;1798;-69
2022/03/14 00:26:58;;;;;;;341.38;87.85;;;;;;;3.44;52.44;101118.78;344856;28;1296;-69
2022/03/14 00:27:09;;;;;;;341.58;88.35;;;;;;;3.43;51.99;101111.88;341180;29;978;-69
2022/03/14 00:27:19;;;;;;;342.43;86.40;;;;;;;3.42;52.03;101110.13;341089;29;1127;-69
2022/03/14 00:27:30;;;;;;;343.42;87.43;;;;;;;3.42;51.80;101115.31;343784;28;1204;-69
2022/03/14 00:27:40;;;;;;;345.10;89.30;;;;;;;3.42;51.43;101115.31;345087;28;881;-69
2022/03/14 00:27:50;;;;;;;343.88;89.47;;;;;;;3.43;51.44;101116.16;342375;28;1361;-69
2022/03/14 00:28:01;;;;;;;343.90;87.47;;;;;;;3.43;51.67;101114.44;339909;29;881;-69
2022/03/14 00:28:12;;;;;;;344.70;88.00;;;;;;;3.44;51.89;101112.72;342423;28;1086;-69
2022/03/14 00:28:22;;;;;;;346.05;90.05;;;;;;;3.43;51.57;101106.69;342467;28;1667;-69
2022/03/14 00:28:33;;;;;;;345.27;92.17;;;;;;;3.43;51.84;101111.88;343292;28;1752;-69
2022/03/14 00:28:43;;;;;;;341.98;88.90;;;;;;;3.44;51.90;101110.16;341201;29;849;-69
2022/03/14 00:28:53;;;;;;;341.13;88.27;;;;;;;3.45;51.88;101114.47;341094;29;970;-69
2022/03/14 00:29:04;;;;;;;340.98;89.38;;;;;;;3.45;51.72;101110.16;342480;28;825;-69
2022/03/14 00:29:16;;;;;;;342.80;91.83;;;;;;;3.44;51.17;101111.00;341229;29;919;-69
2022/03/14 00:29:28;;;;;;;342.02;90.63;;;;;;;3.45;51.88;101114.47;342551;28;1066;-69
2022/03/14 00:29:38;;;;;;;341.23;87.13;;;;;;;3.44;51.46;101121.38;341112;29;944;-69
2022/03/14 00:29:48;;;;;;;343.83;89.93;;;;;;;3.45;51.34;101110.16;342150;28;1941;-69
2022/03/14 00:29:59;;;;;;;347.47;91.80;;;;;;;3.45;51.44;101110.16;343366;28;1866;-69
2022/03/14 00:30:11;;;;;;;349.43;93.40;;;;;;;3.47;51.88;101118.78;341198;29;841;-69
2022/03/14 00:30:22;;;;;;;345.90;91.26;;;;;;;3.47;51.72;101116.19;342384;28;1395;-69
2022/03/14 00:30:32;;;;;;;342.97;89.70;;;;;;;3.47;51.30;101111.03;342363;28;1310;-69
2022/03/14 00:30:43;;;;;;;340.25;88.25;;;;;;;3.49;51.65;101114.50;343799;28;1010;-69
2022/03/14 00:30:53;;;;;;;341.77;91.00;;;;;;;3.50;51.66;101113.66;344058;28;1247;-69
2022/03/14 00:31:03;;;;;;;342.20;91.27;;;;;;;3.50;51.27;101113.66;343426;28;1496;-69
2022/03/14 00:31:14;;;;;;;342.93;90.33;;;;;;;3.52;51.17;101113.66;343754;28;1671;-69
2022/03/14 00:31:25;;;;;;;345.02;89.70;;;;;;;3.52;51.43;101111.94;339968;28;2801;-69
2022/03/14 00:31:35;;;;;;;346.27;88.57;;;;;;;3.52;50.74;101111.94;342091;28;1907;-69
2022/03/14 00:31:46;;;;;;;345.30;88.10;;;;;;;3.52;50.89;101109.34;345060;28;1546;-69
2022/03/14 00:31:56;;;;;;;343.20;87.80;;;;;;;3.54;51.31;101111.97;343796;28;1218;-69
2022/03/14 00:32:07;;;;;;;342.90;90.27;;;;;;;3.54;51.16;101114.56;339962;28;1197;-69
2022/03/14 00:32:17;;;;;;;342.88;89.68;;;;;;;3.53;51.31;101111.09;339721;29;1240;-69
2022/03/14 00:32:27;;;;;;;340.65;88.07;;;;;;;3.54;51.11;101106.78;342383;28;1353;-69
2022/03/14 00:32:38;;;;;;;340.10;89.20;;;;;;;3.54;51.38;101115.41;339674;29;1217;-69
2022/03/14 00:32:49;;;;;;;342.85;91.88;;;;;;;3.53;51.17;101113.69;341179;29;839;-69
2022/03/14 00:32:59;;;;;;;343.50;90.70;;;;;;;3.53;51.22;101113.69;341231;29;1079;-69
2022/03/14 00:33:10;;;;;;;342.43;89.20;;;;;;;3.53;51.51;101113.69;341112;29;1631;-69
2022/03/14 00:33:20;;;;;;;340.38;86.93;;;;;;;3.52;50.93;101109.34;341276;29;939;-69
2022/03/14 00:33:31;;;;;;;339.93;87.43;;;;;;;3.54;51.57;101111.97;341034;28;2172;-69
2022/03/14 00:33:41;;;;;;;339.95;87.32;;;;;;;3.54;50.85;101110.25;341008;29;898;-69
2022/03/14 00:33:52;;;;;;;340.17;87.07;;;;;;;3.56;50.89;101112.84;341024;29;919;-69
2022/03/14 00:34:02;;;;;;;341.83;87.73;;;;;;;3.55;51.29;101111.97;342547;28;1155;-69
2022/03/14 00:34:14;;;;;;;343.80;89.30;;;;;;;3.55;51.34;101111.97;341032;28;1315;-69
2022/03/14 00:34:24;;;;;;;345.02;91.20;;;;;;;3.57;51.48;101114.59;343866;28;972;-69
2022/03/14 00:34:35;;;;;;;344.50;90.65;;;;;;;3.57;51.42;101117.19;345156;28;1232;-70
2022/03/14 00:34:45;;;;;;;342.43;90.07;;;;;;;3.57;51.39;101120.63;342329;28;1213;-70
2022/03/14 00:34:55;;;;;;;340.83;88.78;;;;;;;3.58;51.03;101114.59;342287;28;1857;-70
2022/03/14 00:35:09;;;;;;;340.70;88.33;;;;;;;3.58;51.66;101116.31;342412;28;984;-70
2022/03/14 00:35:21;;;;;;;340.85;87.03;;;;;;;3.58;51.10;101117.19;342601;28;1989;-70
2022/03/14 00:35:32;;;;;;;339.70;85.75;;;;;;;3.59;51.40;101113.75;343662;28;2493;-70
2022/03/14 00:35:43;;;;;;;340.05;85.78;;;;;;;3.59;50.85;101113.75;343837;28;840;-70
2022/03/14 00:35:55;;;;;;;342.23;87.32;;;;;;;3.60;51.56;101112.91;341813;28;2109;-70
2022/03/14 00:36:07;;;;;;;344.60;87.85;;;;;;;3.59;51.17;101112.88;341301;28;2433;-70
2022/03/14 00:36:19;;;;;;;342.98;87.07;;;;;;;3.58;51.56;101108.56;340804;29;1966;-70
2022/03/14 00:36:30;;;;;;;342.13;87.85;;;;;;;3.58;51.34;101109.44;340985;29;1829;-70
2022/03/14 00:36:42;;;;;;;343.13;89.30;;;;;;;3.60;51.24;101114.63;342486;28;950;-70
2022/03/14 00:36:53;;;;;;;342.50;90.13;;;;;;;3.59;51.47;101111.16;341049;28;1340;-70
2022/03/14 00:37:04;;;;;;;342.13;90.97;;;;;;;3.59;51.92;101112.88;341132;29;905;-70
2022/03/14 00:37:15;;;;;;;341.53;89.27;;;;;;;3.59;51.67;101113.75;342455;28;1057;-70
2022/03/14 00:37:26;;;;;;;341.73;88.97;;;;;;;3.57;51.35;101112.88;341126;29;842;-70
2022/03/14 00:37:36;;;;;;;342.40;90.50;;;;;;;3.58;51.39;101119.78;343699;28;1313;-70
2022/03/14 00:37:47;;;;;;;342.53;89.93;;;;;;;3.60;51.57;101114.63;342486;28;935;-70
2022/03/14 00:37:57;;;;;;;341.83;88.82;;;;;;;3.61;51.51;101111.19;342506;28;873;-70
2022/03/14 00:38:08;;;;;;;341.00;86.43;;;;;;;3.59;51.64;101113.75;339786;29;1563;-70
2022/03/14 00:38:18;;;;;;;342.00;86.65;;;;;;;3.59;51.26;101118.94;343576;28;1311;-70
2022/03/14 00:38:29;;;;;;;343.08;87.47;;;;;;;3.59;51.59;101113.75;345244;28;846;-70
2022/03/14 00:38:39;;;;;;;343.43;88.37;;;;;;;3.58;51.84;101112.03;345028;28;936;-69
2022/03/14 00:38:50;;;;;;;342.70;87.75;;;;;;;3.59;51.24;101112.88;343811;28;865;-69
2022/03/14 00:39:00;;;;;;;343.83;86.90;;;;;;;3.58;51.32;101117.19;342453;28;1203;-69
2022/03/14 00:39:11;;;;;;;343.02;87.65;;;;;;;3.57;51.30;101115.47;342554;28;893;-69
2022/03/14 00:39:21;;;;;;;344.57;88.57;;;;;;;3.56;51.36;101112.84;342273;28;2062;-69
2022/03/14 00:39:32;;;;;;;344.27;90.63;;;;;;;3.58;51.65;101116.31;342595;28;877;-69
2022/03/14 00:39:42;;;;;;;344.50;90.05;;;;;;;3.57;51.95;101115.47;341010;29;953;-69
2022/03/14 00:39:53;;;;;;;342.50;89.37;;;;;;;3.58;51.49;101117.19;339619;28;1641;-69
2022/03/14 00:40:04;;;;;;;342.45;88.20;;;;;;;3.57;51.49;101114.59;342958;28;937;-69
2022/03/14 00:40:15;;;;;;;342.58;88.10;;;;;;;3.57;51.22;101115.47;343586;28;1007;-69
2022/03/14 00:40:26;;;;;;;343.27;89.20;;;;;;;3.57;51.59;101112.88;342537;28;848;-69
2022/03/14 00:40:36;;;;;;;343.38;88.47;;;;;;;3.58;51.42;101122.38;341070;28;1486;-69
2022/03/14 00:40:47;;;;;;;343.23;89.93;;;;;;;3.59;51.08;101107.72;343755;28;1429;-69
2022/03/14 00:40:57;;;;;;;343.97;90.63;;;;;;;3.59;51.99;101124.13;343097;28;2058;-69
2022/03/14 00:41:08;;;;;;;342.40;89.40;;;;;;;3.60;51.84;101115.50;346283;28;844;-69
2022/03/14 00:41:18;;;;;;;340.80;86.67;;;;;;;3.59;51.12;101115.47;343721;28;1487;-69
2022/03/14 00:41:29;;;;;;;341.02;87.63;;;;;;;3.59;52.04;101123.25;341169;29;1100;-69
2022/03/14 00:41:39;;;;;;;341.17;87.88;;;;;;;3.58;51.67;101117.19;341012;29;2350;-69
2022/03/14 00:41:50;;;;;;;340.43;87.97;;;;;;;3.58;51.41;101117.19;342381;28;1283;-69
2022/03/14 00:42:01;;;;;;;340.15;87.88;;;;;;;3.59;51.60;101123.25;343308;28;1400;-69
2022/03/14 00:42:11;;;;;;;342.67;90.68;;;;;;;3.60;51.78;101124.97;341100;28;1335;-69
2022/03/14 00:42:22;;;;;;;344.50;92.13;;;;;;;3.60;51.94;101119.81;343720;28;1002;-69
2022/03/14 00:42:32;;;;;;;343.40;91.35;;;;;;;3.61;51.79;101122.41;345219;28;1338;-69
2022/03/14 00:42:43;;;;;;;340.70;86.90;;;;;;;3.62;52.27;101121.56;343807;28;1268;-69
2022/03/14 00:42:54;;;;;;;341.00;86.38;;;;;;;3.62;52.17;101118.09;341861;28;2047;-69
2022/03/14 00:43:04;;;;;;;342.25;86.95;;;;;;;3.62;52.06;101123.28;342469;28;1384;-69
2022/03/14 00:43:15;;;;;;;343.90;89.85;;;;;;;3.63;52.03;101122.44;342402;28;1560;-69
2022/03/14 00:43:26;;;;;;;342.53;89.20;;;;;;;3.62;52.15;101124.16;346573;28;1074;-69
2022/03/14 00:43:36;;;;;;;341.83;87.78;;;;;;;3.62;52.26;101120.69;345157;28;1163;-69
2022/03/14 00:43:47;;;;;;;341.53;87.03;;;;;;;3.61;52.27;101124.13;345179;28;1078;-69
2022/03/14 00:43:57;;;;;;;342.77;88.45;;;;;;;3.61;52.40;101122.41;343798;28;908;-69
2022/03/14 00:44:08;;;;;;;343.37;89.50;;;;;;;3.60;51.98;101128.44;341122;28;1343;-69
2022/03/14 00:44:18;;;;;;;342.77;90.35;;;;;;;3.58;52.16;101122.38;341176;29;889;-69
2022/03/14 00:44:29;;;;;;;343.13;90.50;;;;;;;3.57;51.92;101120.63;342400;28;1349;-69
2022/03/14 00:44:41;;;;;;;345.30;90.93;;;;;;;3.59;52.16;101118.94;342475;28;835;-69
2022/03/14 00:44:51;;;;;;;346.13;90.40;;;;;;;3.57;52.36;101117.19;343635;28;2214;-69
2022/03/14 00:45:03;;;;;;;343.02;88.13;;;;;;;3.57;52.37;101114.59;341930;28;1221;-69
2022/03/14 00:45:14;;;;;;;341.95;87.38;;;;;;;3.57;51.39;101124.94;345082;28;1500;-69
2022/03/14 00:45:25;;;;;;;342.02;87.10;;;;;;;3.58;52.13;101118.91;343745;28;947;-69
2022/03/14 00:45:35;;;;;;;341.95;87.45;;;;;;;3.57;51.90;101119.75;340717;29;1894;-69
2022/03/14 00:45:46;;;;;;;342.25;88.55;;;;;;;3.58;51.66;101117.19;341345;28;2323;-69
2022/03/14 00:45:56;;;;;;;341.03;87.30;;;;;;;3.57;51.55;101120.63;342259;28;1368;-69
2022/03/14 00:46:07;;;;;;;341.80;87.55;;;;;;;3.55;51.47;101122.34;340948;28;952;-69
2022/03/14 00:46:17;;;;;;;340.70;86.20;;;;;;;3.55;51.84;101117.16;343827;28;1059;-69
2022/03/14 00:46:28;;;;;;;343.10;88.77;;;;;;;3.57;51.50;101120.63;343733;28;1405;-69
2022/03/14 00:46:39;;;;;;;343.67;88.28;;;;;;;3.57;52.34;101124.94;342322;28;1815;-69
2022/03/14 00:46:50;;;;;;;346.00;89.10;;;;;;;3.54;52.42;101115.41;340713;29;1730;-69
2022/03/14 00:47:00;;;;;;;344.55;86.43;;;;;;;3.55;52.37;101122.34;342422;28;1256;-69
2022/03/14 00:47:11;;;;;;;343.13;85.53;;;;;;;3.53;52.00;101113.69;342495;28;974;-69
2022/03/14 00:47:21;;;;;;;343.75;86.70;;;;;;;3.52;52.49;101119.72;342441;28;1186;-69
2022/03/14 00:47:31;;;;;;;343.10;87.17;;;;;;;3.50;52.24;101123.13;343843;28;1248;-69
2022/03/14 00:47:42;;;;;;;341.92;87.32;;;;;;;3.50;52.30;101120.53;343652;28;1208;-69
2022/03/14 00:47:52;;;;;;;342.13;87.33;;;;;;;3.50;52.24;101118.81;345131;28;912;-69
2022/03/14 00:48:03;;;;;;;342.75;88.60;;;;;;;3.52;51.79;101121.44;343755;28;1968;-69
2022/03/14 00:48:13;;;;;;;344.65;89.97;;;;;;;3.51;52.00;101119.69;342366;28;1659;-69
2022/03/14 00:48:24;;;;;;;344.47;88.93;;;;;;;3.49;52.07;101117.09;343936;28;960;-69
2022/03/14 00:48:35;;;;;;;345.98;90.43;;;;;;;3.49;52.16;101126.56;339859;29;979;-69
2022/03/14 00:48:46;;;;;;;345.48;89.35;;;;;;;3.49;52.21;101122.25;342408;28;1311;-69
2022/03/14 00:48:56;;;;;;;345.02;90.95;;;;;;;3.49;52.02;101126.56;342500;28;941;-69
2022/03/14 00:49:07;;;;;;;343.60;89.70;;;;;;;3.48;52.58;101120.53;343711;28;1709;-69
2022/03/14 00:49:17;;;;;;;341.17;89.55;;;;;;;3.48;52.24;101125.69;341054;28;1220;-69
2022/03/14 00:49:28;;;;;;;338.67;86.65;;;;;;;3.48;52.40;101130.00;341177;29;1027;-69
2022/03/14 00:49:38;;;;;;;339.77;88.57;;;;;;;3.46;52.82;101119.66;341133;29;936;-69
2022/03/14 00:49:49;;;;;;;342.38;89.28;;;;;;;3.42;52.85;101120.47;341118;28;1244;-69
2022/03/14 00:49:59;;;;;;;343.97;90.07;;;;;;;3.41;53.27;101123.91;344525;28;1961;-69
2022/03/14 00:50:10;;;;;;;345.05;88.47;;;;;;;3.39;53.53;101125.63;343338;28;952;-69
2022/03/14 00:50:20;;;;;;;345.90;88.70;;;;;;;3.37;53.93;101122.13;341135;28;1295;-69
2022/03/14 00:50:30;;;;;;;346.85;89.72;;;;;;;3.38;53.55;101129.03;341478;28;1895;-69
2022/03/14 00:50:42;;;;;;;345.23;88.97;;;;;;;3.35;53.28;101123.84;339401;29;1797;-69
2022/03/14 00:50:52;;;;;;;341.88;86.60;;;;;;;3.36;53.82;101128.16;339213;29;1924;-69
2022/03/14 00:51:04;;;;;;;341.07;86.07;;;;;;;3.37;53.76;101116.97;341694;28;2042;-69
2022/03/14 00:51:14;;;;;;;341.85;87.07;;;;;;;3.37;53.95;101127.31;344481;28;1964;-69
2022/03/14 00:51:25;;;;;;;342.53;89.07;;;;;;;3.36;53.77;101122.97;341073;28;1335;-69
2022/03/14 00:51:35;;;;;;;341.48;87.53;;;;;;;3.37;53.86;101122.13;338747;29;1313;-69
2022/03/14 00:51:45;;;;;;;340.77;87.83;;;;;;;3.36;54.05;101120.41;343719;28;1023;-69